createdAt,value
2023-03-16T00:01:08.986Z,100798.39
2023-03-16T00:04:38.073Z,100788.48
2023-03-16T00:08:04.357Z,100792.05
2023-03-16T00:11:31.469Z,100796.33
2023-03-16T00:14:59.384Z,100798.02
2023-03-16T00:18:28.530Z,100796.83
2023-03-16T00:21:56.088Z,100800.59
2023-03-16T00:25:24.539Z,100801.47
2023-03-16T00:28:54.612Z,100804.90
2023-03-16T00:32:23.934Z,100805.92
2023-03-16T00:35:51.145Z,100804.92
2023-03-16T00:39:17.649Z,100812.61
2023-03-16T00:42:44.483Z,100811.08
2023-03-16T00:46:12.086Z,100811.45
2023-03-16T00:49:39.718Z,100813.15
2023-03-16T00:53:06.651Z,100816.73
2023-03-16T00:56:34.453Z,100818.80
2023-03-16T01:00:02.627Z,100819.30
2023-03-16T01:03:29.260Z,100819.82
2023-03-16T01:06:55.777Z,100821.52
2023-03-16T01:10:22.373Z,100827.31
2023-03-16T01:13:50.059Z,100828.16
2023-03-16T01:17:18.171Z,100828.33
2023-03-16T01:20:51.183Z,100825.96
2023-03-16T01:24:18.230Z,100824.42
2023-03-16T01:27:44.750Z,100827.48
2023-03-16T01:31:14.660Z,100830.39
2023-03-16T01:34:41.759Z,100833.65
2023-03-16T01:38:09.396Z,100833.48
2023-03-16T01:41:37.194Z,100837.91
2023-03-16T01:45:06.127Z,100840.81
2023-03-16T01:48:38.525Z,100840.63
2023-03-16T01:52:08.701Z,100844.73
2023-03-16T01:55:35.236Z,100845.59
2023-03-16T01:59:07.337Z,100844.73
2023-03-16T02:02:34.404Z,100849.17
2023-03-16T02:06:06.297Z,100854.64
2023-03-16T02:09:35.580Z,100853.44
2023-03-16T02:13:03.964Z,100852.75
2023-03-16T02:16:30.794Z,100855.66
2023-03-16T02:20:11.489Z,100852.23
2023-03-16T02:23:38.963Z,100858.20
2023-03-16T02:27:10.519Z,100857.70
2023-03-16T02:30:38.224Z,100856.50
2023-03-16T02:34:05.869Z,100854.42
2023-03-16T02:37:34.156Z,100861.61
2023-03-16T02:41:10.893Z,100865.70
2023-03-16T02:44:40.944Z,100863.30
2023-03-16T02:48:14.867Z,100865.37
2023-03-16T02:51:41.651Z,100862.63
2023-03-16T02:55:10.141Z,100860.61
2023-03-16T02:58:37.457Z,100868.11
2023-03-16T03:02:09.189Z,100862.99
2023-03-16T03:05:37.248Z,100865.55
2023-03-16T03:09:05.076Z,100864.38
2023-03-16T03:12:31.825Z,100859.58
2023-03-16T03:15:58.205Z,100858.04
2023-03-16T03:19:26.268Z,100863.01
2023-03-16T03:22:54.000Z,100864.20
2023-03-16T03:26:20.682Z,100867.77
2023-03-16T03:29:48.073Z,100875.29
2023-03-16T03:33:14.810Z,100868.98
2023-03-16T03:36:41.689Z,100865.73
2023-03-16T03:40:12.024Z,100868.45
2023-03-16T03:43:39.141Z,100869.80
2023-03-16T03:47:07.808Z,100872.87
2023-03-16T03:50:34.352Z,100872.35
2023-03-16T03:54:23.141Z,100880.19
2023-03-16T03:58:03.189Z,100877.63
2023-03-16T04:01:29.892Z,100875.06
2023-03-16T04:04:57.678Z,100879.66
2023-03-16T04:08:23.955Z,100878.65
2023-03-16T04:11:51.172Z,100883.94
2023-03-16T04:15:17.998Z,100882.92
2023-03-16T04:18:54.627Z,100881.90
2023-03-16T04:22:23.544Z,100886.01
2023-03-16T04:25:50.803Z,100885.51
2023-03-16T04:29:19.338Z,100888.75
2023-03-16T04:32:46.290Z,100890.96
2023-03-16T04:36:18.299Z,100891.81
2023-03-16T04:39:45.782Z,100893.52
2023-03-16T04:43:13.918Z,100895.20
2023-03-16T04:46:41.608Z,100893.80
2023-03-16T04:50:12.510Z,100894.48
2023-03-16T04:53:40.326Z,100894.98
2023-03-16T04:57:11.990Z,100893.77
2023-03-16T05:00:43.163Z,100900.06
2023-03-16T05:04:19.919Z,100901.41
2023-03-16T05:07:47.799Z,100903.45
2023-03-16T05:11:15.062Z,100900.20
2023-03-16T05:14:46.624Z,100905.81
2023-03-16T05:18:20.357Z,100902.05
2023-03-16T05:21:47.178Z,100901.87
2023-03-16T05:25:15.754Z,100901.02
2023-03-16T05:28:47.241Z,100902.24
2023-03-16T05:32:17.495Z,100905.83
2023-03-16T05:35:45.037Z,100901.60
2023-03-16T05:39:12.020Z,100906.40
2023-03-16T05:42:51.245Z,100905.06
2023-03-16T05:46:20.676Z,100909.35
2023-03-16T05:49:50.351Z,100911.42
2023-03-16T05:53:29.676Z,100919.44
2023-03-16T05:57:01.970Z,100918.60
2023-03-16T06:00:30.355Z,100923.20
2023-03-16T06:04:07.566Z,100926.45
2023-03-16T06:07:37.546Z,100923.55
2023-03-16T06:11:05.402Z,100922.69
2023-03-16T06:14:33.263Z,100924.05
2023-03-16T06:18:00.215Z,100929.16
2023-03-16T06:21:27.023Z,100924.90
2023-03-16T06:24:56.005Z,100927.11
2023-03-16T06:28:23.297Z,100929.67
2023-03-16T06:31:51.616Z,100933.28
2023-03-16T06:35:18.412Z,100939.59
2023-03-16T06:38:54.464Z,100943.38
2023-03-16T06:42:41.645Z,100944.59
2023-03-16T06:46:10.410Z,100949.71
2023-03-16T06:49:37.981Z,100950.08
2023-03-16T06:53:12.382Z,100954.34
2023-03-16T06:56:39.436Z,100955.39
2023-03-16T07:00:08.577Z,100957.28
2023-03-16T07:03:35.586Z,100964.79
2023-03-16T07:07:19.549Z,100967.69
2023-03-16T07:10:48.057Z,100966.48
2023-03-16T07:14:15.860Z,100969.86
2023-03-16T07:17:43.458Z,100973.41
2023-03-16T07:21:10.174Z,100973.21
2023-03-16T07:24:37.698Z,100972.34
2023-03-16T07:28:06.324Z,100967.86
2023-03-16T07:31:38.453Z,100977.06
2023-03-16T07:35:10.603Z,100981.82
2023-03-16T07:38:50.403Z,100981.96
2023-03-16T07:42:19.253Z,100981.77
2023-03-16T07:46:00.396Z,100982.46
2023-03-16T07:49:28.073Z,100982.25
2023-03-16T07:52:55.315Z,100982.05
2023-03-16T07:56:22.893Z,100984.94
2023-03-16T07:59:51.987Z,100978.71
2023-03-16T08:03:23.114Z,100982.21
2023-03-16T08:06:52.710Z,100980.63
2023-03-16T08:10:20.594Z,100984.67
2023-03-16T08:14:02.099Z,100986.63
2023-03-16T08:17:45.985Z,100992.20
2023-03-16T08:21:17.702Z,100992.34
2023-03-16T08:24:44.438Z,100996.14
2023-03-16T08:28:12.941Z,100996.16
2023-03-16T08:31:43.479Z,100993.73
2023-03-16T08:35:20.980Z,100992.61
2023-03-16T08:39:03.796Z,100997.13
2023-03-16T08:42:35.205Z,100996.18
2023-03-16T08:46:04.173Z,100999.75
2023-03-16T08:49:38.562Z,100996.64
2023-03-16T08:53:09.744Z,101003.29
2023-03-16T08:56:37.398Z,101005.41
2023-03-16T09:00:14.479Z,101016.30
2023-03-16T09:03:42.331Z,101021.83
2023-03-16T09:07:10.191Z,101020.35
2023-03-16T09:10:38.211Z,101027.09
2023-03-16T09:14:05.024Z,101031.33
2023-03-16T09:17:31.936Z,101036.27
2023-03-16T09:21:01.021Z,101032.13
2023-03-16T09:24:28.445Z,101040.00
2023-03-16T09:27:55.987Z,101043.94
2023-03-16T09:31:23.124Z,101047.80
2023-03-16T09:34:49.887Z,101050.81
2023-03-16T09:38:16.224Z,101044.23
2023-03-16T09:41:50.047Z,101047.27
2023-03-16T09:45:17.379Z,101055.76
2023-03-16T09:48:44.496Z,101059.14
2023-03-16T09:52:22.882Z,101059.92
2023-03-16T09:55:54.787Z,101061.39
2023-03-16T09:59:22.839Z,101060.36
2023-03-16T10:03:04.140Z,101065.09
2023-03-16T10:06:31.894Z,101067.83
2023-03-16T10:10:05.836Z,101069.81
2023-03-16T10:13:39.438Z,101077.84
2023-03-16T10:17:11.211Z,101079.49
2023-03-16T10:20:38.145Z,101083.98
2023-03-16T10:24:06.377Z,101082.86
2023-03-16T10:27:36.812Z,101086.34
2023-03-16T10:31:05.117Z,101091.87
2023-03-16T10:34:32.546Z,101090.73
2023-03-16T10:38:00.286Z,101094.63
2023-03-16T10:41:32.556Z,101088.99
2023-03-16T10:45:03.290Z,101087.98
2023-03-16T10:48:34.259Z,101091.96
2023-03-16T10:52:08.075Z,101093.00
2023-03-16T10:55:45.983Z,101091.26
2023-03-16T10:59:32.279Z,101098.41
2023-03-16T11:03:01.373Z,101104.45
2023-03-16T11:06:30.952Z,101105.46
2023-03-16T11:10:00.002Z,101108.23
2023-03-16T11:13:34.140Z,101107.80
2023-03-16T11:17:09.884Z,101107.58
2023-03-16T11:20:38.900Z,101110.91
2023-03-16T11:24:12.802Z,101112.50
2023-03-16T11:27:45.022Z,101109.21
2023-03-16T11:31:20.571Z,101107.23
2023-03-16T11:34:49.014Z,101109.62
2023-03-16T11:38:20.381Z,101112.77
2023-03-16T11:42:01.465Z,101114.90
2023-03-16T11:45:37.908Z,101116.57
2023-03-16T11:49:34.127Z,101118.14
2023-03-16T11:53:09.182Z,101122.27
2023-03-16T11:56:40.781Z,101127.62
2023-03-16T12:00:21.925Z,101131.61
2023-03-16T12:04:16.465Z,101126.94
2023-03-16T12:07:58.129Z,101124.67
2023-03-16T12:11:28.917Z,101129.15
2023-03-16T12:15:05.508Z,101124.73
2023-03-16T12:18:43.903Z,101124.93
2023-03-16T12:22:21.806Z,101129.28
2023-03-16T12:25:50.736Z,101126.74
2023-03-16T12:29:32.606Z,101130.45
2023-03-16T12:33:04.448Z,101133.35
2023-03-16T12:36:53.071Z,101132.53
2023-03-16T12:40:35.313Z,101132.53
2023-03-16T12:44:21.267Z,101136.35
2023-03-16T12:47:53.692Z,101141.71
2023-03-16T12:51:20.092Z,101145.68
2023-03-16T12:54:53.455Z,101147.09
2023-03-16T12:58:20.107Z,101149.00
2023-03-16T13:01:46.285Z,101144.90
2023-03-16T13:05:13.201Z,101148.82
2023-03-16T13:08:46.364Z,101147.39
2023-03-16T13:12:26.338Z,101151.16
2023-03-16T13:16:00.201Z,101156.52
2023-03-16T13:19:29.887Z,101160.38
2023-03-16T13:23:09.076Z,101160.94
2023-03-16T13:26:41.059Z,101163.48
2023-03-16T13:30:18.588Z,101161.58
2023-03-16T13:33:43.813Z,101166.63
2023-03-16T13:37:17.263Z,101164.98
2023-03-16T13:40:49.101Z,101171.03
2023-03-16T13:44:17.537Z,101173.30
2023-03-16T13:47:44.844Z,101175.06
2023-03-16T13:51:16.187Z,101175.80
2023-03-16T13:54:42.104Z,101175.55
2023-03-16T13:58:08.196Z,101173.81
2023-03-16T14:01:33.612Z,101177.51
2023-03-16T14:04:58.923Z,101181.14
2023-03-16T14:08:24.916Z,101179.02
2023-03-16T14:11:50.037Z,101173.98
2023-03-16T14:15:15.066Z,101173.72
2023-03-16T14:18:42.391Z,101174.92
2023-03-16T14:22:07.136Z,101175.40
2023-03-16T14:25:32.458Z,101174.05
2023-03-16T14:28:58.683Z,101175.13
2023-03-16T14:32:28.546Z,101174.17
2023-03-16T14:35:56.464Z,101174.25
2023-03-16T14:39:23.875Z,101177.11
2023-03-16T14:42:48.946Z,101172.83
2023-03-16T14:46:15.510Z,101169.45
2023-03-16T14:49:43.213Z,101166.30
2023-03-16T14:53:08.280Z,101166.85
2023-03-16T14:56:37.655Z,101175.92
2023-03-16T15:00:02.404Z,101173.36
2023-03-16T15:03:33.367Z,101173.88
2023-03-16T15:06:58.808Z,101174.83
2023-03-16T15:10:24.996Z,101175.95
2023-03-16T15:14:04.539Z,101172.66
2023-03-16T15:17:29.861Z,101174.05
2023-03-16T15:20:55.640Z,101171.23
2023-03-16T15:24:21.155Z,101180.11
2023-03-16T15:27:47.354Z,101178.04
2023-03-16T15:31:14.293Z,101177.48
2023-03-16T15:34:39.494Z,101179.59
2023-03-16T15:38:07.191Z,101183.40
2023-03-16T15:41:38.288Z,101187.15
2023-03-16T15:45:17.753Z,101191.55
2023-03-16T15:48:44.665Z,101191.15
2023-03-16T15:52:19.543Z,101187.48
2023-03-16T15:55:47.904Z,101182.54
2023-03-16T15:59:17.122Z,101187.44
2023-03-16T16:02:42.315Z,101188.89
2023-03-16T16:06:12.351Z,101197.61
2023-03-16T16:09:38.792Z,101200.27
2023-03-16T16:13:04.359Z,101205.58
2023-03-16T16:16:33.358Z,101208.66
2023-03-16T16:19:59.972Z,101215.39
2023-03-16T16:23:25.276Z,101218.68
2023-03-16T16:26:54.904Z,101221.80
2023-03-16T16:30:22.812Z,101222.55
2023-03-16T16:33:47.887Z,101229.13
2023-03-16T16:37:12.864Z,101234.65
2023-03-16T16:40:45.935Z,101239.30
2023-03-16T16:44:17.364Z,101246.31
2023-03-16T16:47:42.796Z,101250.06
2023-03-16T16:51:09.916Z,101253.15
2023-03-16T16:54:37.257Z,101253.16
2023-03-16T16:58:05.975Z,101257.80
2023-03-16T17:01:34.806Z,101257.59
2023-03-16T17:05:00.159Z,101261.58
2023-03-16T17:08:25.855Z,101263.60
2023-03-16T17:11:51.703Z,101264.30
2023-03-16T17:15:30.559Z,101267.58
2023-03-16T17:18:56.493Z,101280.85
2023-03-16T17:22:25.875Z,101281.52
2023-03-16T17:25:50.936Z,101280.11
2023-03-16T17:29:21.291Z,101283.52
2023-03-16T17:32:46.313Z,101285.20
2023-03-16T17:36:14.985Z,101287.44
2023-03-16T17:39:40.617Z,101284.48
2023-03-16T17:43:07.577Z,101280.13
2023-03-16T17:46:32.682Z,101283.86
2023-03-16T17:49:57.754Z,101282.94
2023-03-16T17:53:23.730Z,101290.61
2023-03-16T17:56:51.383Z,101301.20
2023-03-16T18:00:21.844Z,101309.17
2023-03-16T18:03:46.521Z,101311.83
2023-03-16T18:07:14.913Z,101312.23
2023-03-16T18:10:40.432Z,101314.52
2023-03-16T18:14:06.408Z,101313.17
2023-03-16T18:17:32.605Z,101313.58
2023-03-16T18:21:00.757Z,101313.26
2023-03-16T18:24:27.081Z,101314.15
2023-03-16T18:27:51.774Z,101309.38
2023-03-16T18:31:21.650Z,101310.77
2023-03-16T18:34:47.798Z,101313.87
2023-03-16T18:38:17.289Z,101318.49
2023-03-16T18:41:42.078Z,101322.80
2023-03-16T18:45:07.975Z,101326.55
2023-03-16T18:48:35.061Z,101328.10
2023-03-16T18:52:00.156Z,101330.15
2023-03-16T18:55:27.472Z,101329.11
2023-03-16T18:58:54.731Z,101325.00
2023-03-16T19:02:28.276Z,101322.77
2023-03-16T19:05:54.044Z,101325.48
2023-03-16T19:09:21.239Z,101328.03
2023-03-16T19:12:46.765Z,101329.38
2023-03-16T19:16:17.064Z,101339.45
2023-03-16T19:19:43.148Z,101345.44
2023-03-16T19:23:10.516Z,101344.91
2023-03-16T19:26:37.618Z,101345.75
2023-03-16T19:30:04.745Z,101351.90
2023-03-16T19:33:34.390Z,101357.38
2023-03-16T19:37:02.937Z,101360.83
2023-03-16T19:40:31.864Z,101363.23
2023-03-16T19:43:58.391Z,101374.71
2023-03-16T19:47:27.795Z,101380.88
2023-03-16T19:50:55.776Z,101377.46
2023-03-16T19:54:24.190Z,101376.59
2023-03-16T19:57:50.808Z,101375.05
2023-03-16T20:01:20.633Z,101375.91
2023-03-16T20:04:46.771Z,101368.20
2023-03-16T20:08:21.987Z,101370.05
2023-03-16T20:11:49.107Z,101372.77
2023-03-16T20:15:18.111Z,101369.84
2023-03-16T20:18:44.152Z,101364.52
2023-03-16T20:22:12.364Z,101351.83
2023-03-16T20:25:37.449Z,101349.23
2023-03-16T20:29:02.508Z,101344.44
2023-03-16T20:32:32.326Z,101347.14
2023-03-16T20:35:58.144Z,101347.64
2023-03-16T20:39:23.030Z,101344.35
2023-03-16T20:42:48.764Z,101349.96
2023-03-16T20:46:17.652Z,101354.91
2023-03-16T20:49:44.421Z,101349.58
2023-03-16T20:53:10.492Z,101353.66
2023-03-16T20:56:36.538Z,101355.20
2023-03-16T21:00:05.676Z,101357.59
2023-03-16T21:03:34.763Z,101364.21
2023-03-16T21:07:01.196Z,101365.39
2023-03-16T21:10:28.489Z,101362.30
2023-03-16T21:13:55.138Z,101354.41
2023-03-16T21:17:25.260Z,101357.81
2023-03-16T21:20:51.986Z,101353.37
2023-03-16T21:24:17.094Z,101354.68
2023-03-16T21:27:42.255Z,101357.92
2023-03-16T21:31:08.657Z,101355.65
2023-03-16T21:34:37.337Z,101352.23
2023-03-16T21:38:03.276Z,101346.77
2023-03-16T21:41:29.075Z,101351.04
2023-03-16T21:44:54.513Z,101357.69
2023-03-16T21:48:21.660Z,101355.64
2023-03-16T21:51:46.975Z,101356.30
2023-03-16T21:55:23.707Z,101366.02
2023-03-16T21:58:48.970Z,101367.04
2023-03-16T22:02:19.976Z,101367.02
2023-03-16T22:05:46.106Z,101373.73
2023-03-16T22:09:17.912Z,101368.81
2023-03-16T22:12:43.118Z,101369.04
2023-03-16T22:16:15.329Z,101373.69
2023-03-16T22:19:40.450Z,101382.95
2023-03-16T22:23:05.265Z,101383.17
2023-03-16T22:26:31.145Z,101381.16
2023-03-16T22:29:56.139Z,101384.42
2023-03-16T22:33:22.870Z,101384.45
2023-03-16T22:36:50.622Z,101392.16
2023-03-16T22:40:18.636Z,101393.35
2023-03-16T22:43:45.494Z,101391.98
2023-03-16T22:47:21.684Z,101389.04
2023-03-16T22:50:47.189Z,101391.27
2023-03-16T22:54:16.537Z,101391.27
2023-03-16T22:57:42.225Z,101392.27
2023-03-16T23:01:15.611Z,101387.98
2023-03-16T23:04:40.770Z,101385.38
2023-03-16T23:08:14.771Z,101389.66
2023-03-16T23:11:40.104Z,101394.09
2023-03-16T23:15:11.115Z,101394.06
2023-03-16T23:18:37.064Z,101384.13
2023-03-16T23:22:05.856Z,101375.93
2023-03-16T23:25:31.628Z,101370.98
2023-03-16T23:28:57.705Z,101374.91
2023-03-16T23:32:23.212Z,101374.08
2023-03-16T23:35:48.605Z,101367.60
2023-03-16T23:39:14.540Z,101364.52
2023-03-16T23:42:39.603Z,101362.32
2023-03-16T23:46:05.466Z,101361.64
2023-03-16T23:49:33.176Z,101359.11
2023-03-16T23:52:59.385Z,101359.13
2023-03-16T23:56:24.156Z,101354.86
2023-03-16T23:59:51.358Z,101358.83
